Time;durP1;ratioP1;P1;durP2;ratioP2;P2;SDS_P1;SDS_P2;PMS_P1;PMS_P2;Temp;Humidity;BMP_temperature;BMP_pressure;BME280_temperature;BME280_humidity;BME280_pressure;Samples;Min_cycle;Max_cycle;Signal;HPM_P1;HPM_P2
2023/03/16 00:00:46;;;;;;;;;;;;;;;8.50;100.00;99780.31;6158680;23;19914;-94
2023/03/16 00:03:17;;;;;;;;;;;;;;;8.51;100.00;99775.97;6158698;23;19944;-95
2023/03/16 00:05:45;;;;;;;;;;;;;;;8.52;100.00;99778.47;6159222;23;19968;-95
2023/03/16 00:08:10;;;;;;;;;;;;;;;8.55;100.00;99759.47;6159005;23;19908;-94
2023/03/16 00:10:35;;;;;;;;;;;;;;;8.55;100.00;99755.13;6158817;23;20345;-95
2023/03/16 00:13:01;;;;;;;;;;;;;;;8.55;100.00;99744.84;6159100;23;19918;-95
2023/03/16 00:15:27;;;;;;;;;;;;;;;8.61;100.00;99747.97;6159079;23;19983;-95
2023/03/16 00:17:53;;;;;;;;;;;;;;;8.60;100.00;99746.31;6157828;23;20227;-95
2023/03/16 00:20:18;;;;;;;;;;;;;;;8.63;100.00;99748.69;6160425;23;19908;-95
2023/03/16 00:22:44;;;;;;;;;;;;;;;8.53;100.00;99739.00;6160849;23;19911;-96
2023/03/16 00:25:10;;;;;;;;;;;;;;;8.58;100.00;99741.25;6160575;23;19934;-96
2023/03/16 00:27:36;;;;;;;;;;;;;;;8.62;100.00;99736.78;6160110;23;19908;-95
2023/03/16 00:30:02;;;;;;;;;;;;;;;8.61;100.00;99732.53;6160685;23;19958;-96
2023/03/16 00:32:29;;;;;;;;;;;;;;;8.65;100.00;99731.44;6160669;23;20243;-95
2023/03/16 00:34:54;;;;;;;;;;;;;;;8.62;100.00;99729.88;6160758;23;19966;-95
2023/03/16 00:37:22;;;;;;;;;;;;;;;8.68;100.00;99723.53;6160544;23;19908;-94
2023/03/16 00:39:47;;;;;;;;;;;;;;;8.70;100.00;99730.22;6160299;23;19986;-95
2023/03/16 00:42:14;;;;;;;;;;;;;;;8.61;100.00;99719.66;6160097;23;20319;-95
2023/03/16 00:44:40;;;;;;;;;;;;;;;8.67;100.00;99719.31;6160764;23;19943;-95
2023/03/16 00:47:06;;;;;;;;;;;;;;;8.62;100.00;99714.44;6160228;23;19908;-94
2023/03/16 00:49:33;;;;;;;;;;;;;;;8.64;100.00;99711.78;6160464;23;20338;-95
2023/03/16 00:52:00;;;;;;;;;;;;;;;8.64;100.00;99707.47;6160839;23;19962;-94
2023/03/16 00:54:25;;;;;;;;;;;;;;;8.65;100.00;99703.13;6160243;23;19939;-96
2023/03/16 00:56:51;;;;;;;;;;;;;;;8.67;100.00;99703.88;6160130;23;19944;-95
2023/03/16 00:59:18;;;;;;;;;;;;;;;8.70;100.00;99696.78;6160408;23;19914;-95
2023/03/16 01:01:45;;;;;;;;;;;;;;;8.67;100.00;99696.16;6160366;23;20376;-95
2023/03/16 01:04:10;;;;;;;;;;;;;;;8.70;100.00;99695.97;6160288;23;19908;-94
2023/03/16 01:06:36;;;;;;;;;;;;;;;8.69;100.00;99695.13;6160226;23;19908;-95
2023/03/16 01:09:04;;;;;;;;;;;;;;;8.66;100.00;99684.22;6159994;23;20392;-94
2023/03/16 01:11:32;;;;;;;;;;;;;;;8.62;100.00;99699.00;6159930;23;19999;-95
2023/03/16 01:13:58;;;;;;;;;;;;;;;8.64;100.00;99697.16;6160015;23;19939;-95
2023/03/16 01:16:23;;;;;;;;;;;;;;;8.63;100.00;99689.53;6160301;23;19918;-95
2023/03/16 01:18:48;;;;;;;;;;;;;;;8.65;100.00;99687.69;6160100;23;19908;-96
2023/03/16 01:21:14;;;;;;;;;;;;;;;8.67;100.00;99667.84;6161093;23;19975;-94
2023/03/16 01:23:39;;;;;;;;;;;;;;;8.64;100.00;99675.78;6162306;23;20343;-96
2023/03/16 01:26:05;;;;;;;;;;;;;;;8.66;100.00;99684.22;6161101;23;19908;-95
2023/03/16 01:28:31;;;;;;;;;;;;;;;8.60;100.00;99676.88;6160405;23;19931;-95
2023/03/16 01:31:01;;;;;;;;;;;;;;;8.63;100.00;99671.53;6159603;23;19908;-95
2023/03/16 01:33:27;;;;;;;;;;;;;;;8.61;100.00;99663.06;6160059;23;20319;-95
2023/03/16 01:35:57;;;;;;;;;;;;;;;8.65;100.00;99661.97;6160364;23;19984;-95
2023/03/16 01:38:23;;;;;;;;;;;;;;;8.68;100.00;99664.34;6159870;23;19936;-96
2023/03/16 01:40:50;;;;;;;;;;;;;;;8.64;100.00;99668.06;6159850;23;19908;-95
2023/03/16 01:43:16;;;;;;;;;;;;;;;8.63;100.00;99659.50;6160152;23;19914;-95
2023/03/16 01:45:57;;;;;;;;;;;;;;;8.62;100.00;99655.28;6159975;23;19910;-94
2023/03/16 01:48:23;;;;;;;;;;;;;;;8.68;100.00;99661.78;6160088;23;19908;-94
2023/03/16 01:50:51;;;;;;;;;;;;;;;8.70;100.00;99654.78;6159827;23;19999;-95
2023/03/16 01:53:16;;;;;;;;;;;;;;;8.68;100.00;99656.63;6159608;23;20278;-95
2023/03/16 01:55:43;;;;;;;;;;;;;;;8.66;100.00;99656.75;6129842;23;19916;-95
2023/03/16 01:58:09;;;;;;;;;;;;;;;8.70;100.00;99655.63;6129946;23;19914;-95
2023/03/16 02:00:35;;;;;;;;;;;;;;;8.73;100.00;99649.44;6130066;23;19908;-96
2023/03/16 02:03:07;;;;;;;;;;;;;;;8.69;100.00;99653.16;6130454;23;19908;-95
2023/03/16 02:05:37;;;;;;;;;;;;;;;8.67;100.00;99655.00;6129946;23;19905;-95
2023/03/16 02:08:04;;;;;;;;;;;;;;;8.74;100.00;99651.13;6130459;23;19911;-95
2023/03/16 02:10:29;;;;;;;;;;;;;;;8.68;100.00;99651.50;6130093;23;19913;-94
2023/03/16 02:12:56;;;;;;;;;;;;;;;8.70;100.00;99641.94;6130339;23;19909;-95
2023/03/16 02:15:22;;;;;;;;;;;;;;;8.72;100.00;99642.66;6130293;23;19928;-95
2023/03/16 02:17:48;;;;;;;;;;;;;;;8.67;100.00;99637.00;6130291;23;19932;-94
2023/03/16 02:20:29;;;;;;;;;;;;;;;8.71;100.00;99641.84;6129740;23;19983;-95
2023/03/16 02:22:54;;;;;;;;;;;;;;;8.75;100.00;99635.59;6130048;23;19909;-96
2023/03/16 02:25:40;;;;;;;;;;;;;;;8.70;100.00;99624.75;6129536;23;20012;-95
2023/03/16 02:28:08;;;;;;;;;;;;;;;8.69;100.00;99633.41;6129562;23;19940;-95
2023/03/16 02:30:34;;;;;;;;;;;;;;;8.74;100.00;99630.53;6129589;23;19909;-95
2023/03/16 02:33:00;;;;;;;;;;;;;;;8.74;100.00;99635.69;6130117;23;19915;-96
2023/03/16 02:35:26;;;;;;;;;;;;;;;8.71;100.00;99628.16;6130187;23;19909;-96
2023/03/16 02:37:51;;;;;;;;;;;;;;;8.72;100.00;99620.34;6130196;23;20220;-96
2023/03/16 02:40:28;;;;;;;;;;;;;;;8.75;100.00;99627.03;6130099;23;19967;-95
2023/03/16 02:42:56;;;;;;;;;;;;;;;8.75;100.00;99622.75;6129865;23;19955;-96
2023/03/16 02:45:25;;;;;;;;;;;;;;;8.76;100.00;99623.56;6130008;23;20320;-96
2023/03/16 02:47:52;;;;;;;;;;;;;;;8.74;100.00;99613.34;6130318;23;19904;-96
2023/03/16 02:50:17;;;;;;;;;;;;;;;8.77;100.00;99604.63;6130153;23;19915;-96
2023/03/16 02:52:42;;;;;;;;;;;;;;;8.77;100.00;99604.63;6130184;23;19904;-96
2023/03/16 02:55:08;;;;;;;;;;;;;;;8.75;100.00;99606.44;6129509;23;19935;-96
2023/03/16 02:57:34;;;;;;;;;;;;;;;8.73;100.00;99598.00;6130186;23;19932;-95
2023/03/16 03:00:00;;;;;;;;;;;;;;;8.76;100.00;99597.81;6130018;23;19959;-96
2023/03/16 03:02:25;;;;;;;;;;;;;;;8.79;100.00;99587.34;6128671;23;19912;-96
2023/03/16 03:04:53;;;;;;;;;;;;;;;8.76;100.00;99597.81;6129334;23;19919;-95
2023/03/16 03:07:19;;;;;;;;;;;;;;;8.74;100.00;99589.38;6129815;23;20297;-95
2023/03/16 03:09:45;;;;;;;;;;;;;;;8.73;100.00;99598.00;6129869;23;20133;-96
2023/03/16 03:12:11;;;;;;;;;;;;;;;8.75;100.00;99596.16;6129967;23;19915;-95
2023/03/16 03:14:37;;;;;;;;;;;;;;;8.71;100.00;99587.00;6129861;23;19908;-95
2023/03/16 03:17:03;;;;;;;;;;;;;;;8.74;100.00;99582.47;6129725;23;19954;-96
2023/03/16 03:19:29;;;;;;;;;;;;;;;8.72;100.00;99583.50;6129609;23;19909;-95
2023/03/16 03:21:57;;;;;;;;;;;;;;;8.71;100.00;99589.56;6129850;23;19955;-96
2023/03/16 03:24:22;;;;;;;;;;;;;;;8.70;100.00;99578.44;6129531;23;19912;-96
2023/03/16 03:26:47;;;;;;;;;;;;;;;8.67;100.00;99575.25;6129936;23;19959;-96
2023/03/16 03:29:13;;;;;;;;;;;;;;;8.73;100.00;99573.13;6129781;23;19912;-96
2023/03/16 03:31:38;;;;;;;;;;;;;;;8.70;100.00;99572.47;6129156;23;19909;-96
2023/03/16 03:34:05;;;;;;;;;;;;;;;8.71;100.00;99574.13;6129949;23;19932;-95
2023/03/16 03:36:31;;;;;;;;;;;;;;;8.62;100.00;99570.38;6130135;23;19962;-95
2023/03/16 03:38:56;;;;;;;;;;;;;;;8.68;100.00;99558.88;6130223;23;19959;-96
2023/03/16 03:41:21;;;;;;;;;;;;;;;8.63;100.00;99551.44;6129264;23;20331;-96
2023/03/16 03:43:46;;;;;;;;;;;;;;;8.67;100.00;99552.09;6129920;23;19919;-95
2023/03/16 03:46:12;;;;;;;;;;;;;;;8.59;100.00;99542.31;6130022;23;19909;-96
2023/03/16 03:48:37;;;;;;;;;;;;;;;8.62;100.00;99549.00;6130295;23;19928;-95
2023/03/16 03:51:02;;;;;;;;;;;;;;;8.61;100.00;99548.19;6129438;23;19916;-96
2023/03/16 03:53:28;;;;;;;;;;;;;;;8.59;100.00;99549.19;6127175;23;19986;-96
2023/03/16 03:55:53;;;;;;;;;;;;;;;8.60;100.00;99550.84;6130521;23;19904;-96
2023/03/16 03:58:18;;;;;;;;;;;;;;;8.59;100.00;99533.75;6131629;23;20024;-96
2023/03/16 04:00:44;;;;;;;;;;;;;;;8.63;100.00;99540.34;6131261;23;19912;-96
2023/03/16 04:03:09;;;;;;;;;;;;;;;8.63;100.00;99537.78;6131933;23;19908;-96
2023/03/16 04:05:34;;;;;;;;;;;;;;;8.59;100.00;99542.31;6132080;23;19908;-96
2023/03/16 04:07:59;;;;;;;;;;;;;;;8.61;100.00;99537.03;6131753;23;19970;-95
2023/03/16 04:10:26;;;;;;;;;;;;;;;8.65;100.00;99539.31;6131519;23;19920;-96
2023/03/16 04:12:52;;;;;;;;;;;;;;;8.64;100.00;99535.13;6131578;23;19915;-96
2023/03/16 04:15:17;;;;;;;;;;;;;;;8.62;100.00;99528.41;6131807;23;19995;-95
2023/03/16 04:17:42;;;;;;;;;;;;;;;8.62;100.00;99534.38;6131437;23;19908;-96
2023/03/16 04:20:18;;;;;;;;;;;;;;;8.59;100.00;99529.44;6131131;23;20298;-95
2023/03/16 04:22:47;;;;;;;;;;;;;;;8.59;100.00;99519.16;6131521;23;19940;-96
2023/03/16 04:25:14;;;;;;;;;;;;;;;8.60;100.00;99509.69;6130977;23;19984;-96
2023/03/16 04:27:40;;;;;;;;;;;;;;;8.56;100.00;99509.88;6131991;23;19915;-95
2023/03/16 04:30:07;;;;;;;;;;;;;;;8.59;100.00;99518.34;6131805;23;19908;-95
2023/03/16 04:32:33;;;;;;;;;;;;;;;8.57;100.00;99506.38;6131304;23;20250;-95
2023/03/16 04:34:58;;;;;;;;;;;;;;;8.59;100.00;99508.03;6131289;23;19943;-96
2023/03/16 04:37:23;;;;;;;;;;;;;;;8.57;100.00;99508.13;6131501;23;19908;-95
2023/03/16 04:39:49;;;;;;;;;;;;;;;8.52;100.00;99495.56;6131459;23;19975;-95
2023/03/16 04:42:14;;;;;;;;;;;;;;;8.55;100.00;99497.94;6131021;23;19908;-96
2023/03/16 04:44:43;;;;;;;;;;;;;;;8.52;100.00;99513.56;6131122;23;20371;-95
2023/03/16 04:47:11;;;;;;;;;;;;;;;8.54;100.00;99518.63;6131157;23;19908;-96
2023/03/16 04:49:37;;;;;;;;;;;;;;;8.56;100.00;99499.59;6131456;23;19912;-96
2023/03/16 04:52:03;;;;;;;;;;;;;;;8.57;100.00;99493.53;6131328;23;19908;-96
2023/03/16 04:54:28;;;;;;;;;;;;;;;8.57;100.00;99496.09;6131114;23;19912;-96
2023/03/16 04:56:54;;;;;;;;;;;;;;;8.61;100.00;99495.88;6130906;23;20390;-95
2023/03/16 04:59:19;;;;;;;;;;;;;;;8.55;100.00;99512.53;6131127;23;19909;-96
2023/03/16 05:01:44;;;;;;;;;;;;;;;8.56;100.00;99504.75;6130687;23;20217;-96
2023/03/16 05:04:10;;;;;;;;;;;;;;;8.53;100.00;99502.38;6131253;23;19915;-95
2023/03/16 05:06:35;;;;;;;;;;;;;;;8.62;100.00;99497.56;6131101;23;19967;-95
2023/03/16 05:09:00;;;;;;;;;;;;;;;8.53;100.00;99489.50;6131528;23;19912;-95
2023/03/16 05:11:26;;;;;;;;;;;;;;;8.52;100.00;99493.00;6131169;23;19920;-95
2023/03/16 05:13:51;;;;;;;;;;;;;;;8.51;100.00;99486.22;6131424;23;19908;-96
2023/03/16 05:16:16;;;;;;;;;;;;;;;8.48;100.00;99488.97;6131082;23;19908;-95
2023/03/16 05:18:42;;;;;;;;;;;;;;;8.50;100.00;99489.69;6130915;23;19909;-96
2023/03/16 05:21:07;;;;;;;;;;;;;;;8.46;100.00;99489.97;6130631;23;19908;-95
2023/03/16 05:23:32;;;;;;;;;;;;;;;8.52;100.00;99497.31;6130355;23;20228;-96
2023/03/16 05:26:01;;;;;;;;;;;;;;;8.46;100.00;99503.69;6131168;23;19983;-95
2023/03/16 05:28:27;;;;;;;;;;;;;;;8.41;100.00;99508.28;6131164;23;19908;-96
2023/03/16 05:30:52;;;;;;;;;;;;;;;8.40;100.00;99504.06;6130822;23;19944;-95
2023/03/16 05:33:18;;;;;;;;;;;;;;;8.42;100.00;99501.41;6130640;23;19912;-96
2023/03/16 05:35:43;;;;;;;;;;;;;;;8.35;100.00;99511.22;6130655;23;19955;-95
2023/03/16 05:38:08;;;;;;;;;;;;;;;8.38;100.00;99505.06;6130866;23;19914;-96
2023/03/16 05:40:36;;;;;;;;;;;;;;;8.35;100.00;99506.06;6130642;23;19908;-96
2023/03/16 05:43:01;;;;;;;;;;;;;;;8.41;100.00;99504.88;6130647;23;19908;-95
2023/03/16 05:45:26;;;;;;;;;;;;;;;8.44;100.00;99504.72;6130278;23;20335;-95
2023/03/16 05:47:52;;;;;;;;;;;;;;;8.39;100.00;99492.09;6131319;23;19908;-96
2023/03/16 05:50:17;;;;;;;;;;;;;;;8.45;100.00;99489.16;6130698;23;19915;-96
2023/03/16 05:52:43;;;;;;;;;;;;;;;8.37;100.00;99488.81;6130338;23;19908;-95
2023/03/16 05:55:09;;;;;;;;;;;;;;;8.39;100.00;99475.84;6129787;23;19912;-96
2023/03/16 05:57:34;;;;;;;;;;;;;;;8.37;100.00;99473.38;6130607;23;20271;-96
2023/03/16 06:00:00;;;;;;;;;;;;;;;8.41;100.00;99464.56;6130648;23;20279;-95
2023/03/16 06:02:26;;;;;;;;;;;;;;;8.32;100.00;99447.13;6130626;23;19992;-95
2023/03/16 06:04:51;;;;;;;;;;;;;;;8.32;100.00;99440.25;6130213;23;19909;-96
2023/03/16 06:07:16;;;;;;;;;;;;;;;8.29;100.00;99449.88;6130561;23;19909;-95
2023/03/16 06:09:42;;;;;;;;;;;;;;;8.29;100.00;99455.88;6130825;23;19904;-95
2023/03/16 06:12:08;;;;;;;;;;;;;;;8.29;100.00;99460.16;6129890;23;20328;-96
2023/03/16 06:14:33;;;;;;;;;;;;;;;8.30;100.00;99446.41;6130321;23;19904;-96
2023/03/16 06:16:59;;;;;;;;;;;;;;;8.30;100.00;99456.69;6130310;23;19908;-95
2023/03/16 06:19:24;;;;;;;;;;;;;;;8.30;100.00;99456.69;6130397;23;19992;-96
2023/03/16 06:21:49;;;;;;;;;;;;;;;8.35;100.00;99450.31;6130106;23;19979;-96
2023/03/16 06:24:14;;;;;;;;;;;;;;;8.32;100.00;99452.28;6129658;23;19992;-94
2023/03/16 06:26:40;;;;;;;;;;;;;;;8.32;100.00;99449.72;6130605;23;19915;-95
2023/03/16 06:29:05;;;;;;;;;;;;;;;8.34;100.00;99445.31;6130267;23;19931;-96
2023/03/16 06:31:32;;;;;;;;;;;;;;;8.36;100.00;99448.56;6129797;23;19992;-96
2023/03/16 06:33:58;;;;;;;;;;;;;;;8.36;100.00;99444.28;6129904;23;19916;-96
2023/03/16 06:36:23;;;;;;;;;;;;;;;8.36;100.00;99449.41;6130004;23;19909;-96
2023/03/16 06:38:48;;;;;;;;;;;;;;;8.38;100.00;99451.88;6130164;23;20316;-96
2023/03/16 06:41:14;;;;;;;;;;;;;;;8.33;100.00;99441.06;6129622;23;19916;-96
2023/03/16 06:43:39;;;;;;;;;;;;;;;8.37;100.00;99442.53;6130136;23;19912;-95
2023/03/16 06:46:08;;;;;;;;;;;;;;;8.34;100.00;99432.44;6130580;23;19909;-96
2023/03/16 06:48:33;;;;;;;;;;;;;;;8.37;100.00;99447.66;6130707;23;20209;-95
2023/03/16 06:50:58;;;;;;;;;;;;;;;8.37;100.00;99437.38;6129924;23;19935;-95
2023/03/16 06:53:24;;;;;;;;;;;;;;;8.43;100.00;99443.91;6129326;23;19908;-96
2023/03/16 06:55:50;;;;;;;;;;;;;;;8.45;100.00;99450.59;6129416;23;20282;-96
2023/03/16 06:58:15;;;;;;;;;;;;;;;8.47;100.00;99453.06;6130214;23;19999;-96
2023/03/16 07:00:41;;;;;;;;;;;;;;;8.53;100.00;99456.09;6131739;23;19908;-95
2023/03/16 07:03:07;;;;;;;;;;;;;;;8.57;100.00;99443.84;6130888;23;19908;-96
2023/03/16 07:05:32;;;;;;;;;;;;;;;8.57;100.00;99457.50;6132220;23;19909;-95
2023/03/16 07:07:57;;;;;;;;;;;;;;;8.59;100.00;99467.72;6131204;23;19941;-95
2023/03/16 07:10:24;;;;;;;;;;;;;;;8.61;100.00;99473.59;6130623;23;19950;-96
2023/03/16 07:12:49;;;;;;;;;;;;;;;8.54;100.00;99469.75;6131666;23;20402;-94
2023/03/16 07:15:14;;;;;;;;;;;;;;;8.59;100.00;99466.91;6130069;23;19915;-96
2023/03/16 07:17:41;;;;;;;;;;;;;;;8.60;100.00;99481.38;6134275;23;20328;-96
2023/03/16 07:20:09;;;;;;;;;;;;;;;8.55;100.00;99477.34;6132527;23;19951;-96
2023/03/16 07:22:35;;;;;;;;;;;;;;;8.57;100.00;99485.81;6132836;23;20319;-96
2023/03/16 07:25:00;;;;;;;;;;;;;;;8.55;100.00;99487.66;6130064;23;19924;-96
2023/03/16 07:27:26;;;;;;;;;;;;;;;8.52;100.00;99487.84;6129069;23;19908;-96
2023/03/16 07:29:51;;;;;;;;;;;;;;;8.50;100.00;99476.84;6129866;23;19923;-96
2023/03/16 07:32:17;;;;;;;;;;;;;;;8.63;100.00;99481.19;6132876;23;19913;-96
2023/03/16 07:34:42;;;;;;;;;;;;;;;8.62;100.00;99489.84;6139577;23;19955;-96
2023/03/16 07:37:07;;;;;;;;;;;;;;;8.61;100.00;99486.44;6138434;23;19912;-96
2023/03/16 07:39:33;;;;;;;;;;;;;;;8.54;100.00;99490.34;6132533;23;19940;-95
2023/03/16 07:41:59;;;;;;;;;;;;;;;8.57;100.00;99490.13;6130265;23;19904;-96
2023/03/16 07:44:24;;;;;;;;;;;;;;;8.63;100.00;99486.31;6129639;23;19908;-96
2023/03/16 07:46:50;;;;;;;;;;;;;;;8.63;100.00;99479.44;6130446;23;19915;-96
2023/03/16 07:49:15;;;;;;;;;;;;;;;8.55;100.00;99479.94;6130670;23;20276;-95
2023/03/16 07:51:41;;;;;;;;;;;;;;;8.57;100.00;99483.22;6130115;23;19975;-96
2023/03/16 07:54:06;;;;;;;;;;;;;;;8.59;100.00;99478.00;6129357;23;20007;-96
2023/03/16 07:56:58;;;;;;;;;;;;;;;;;;;;;
2023/03/16 07:59:38;;;;;;;;;;;;;;;8.70;100.00;99479.88;6083437;23;19914;-96
2023/03/16 08:02:20;;;;;;;;;;;;;;;8.72;100.00;99470.31;6173945;23;19936;-94
2023/03/16 08:04:56;;;;;;;;;;;;;;;8.72;100.00;99463.41;6152834;23;19915;-96
2023/03/16 08:07:21;;;;;;;;;;;;;;;8.85;100.00;99463.44;6146892;23;19960;-96
2023/03/16 08:09:46;;;;;;;;;;;;;;;8.78;100.00;99472.50;6144726;23;19905;-96
2023/03/16 08:12:12;;;;;;;;;;;;;;;8.85;100.00;99458.28;6145859;23;19992;-96
2023/03/16 08:14:39;;;;;;;;;;;;;;;8.93;100.00;99470.66;6133421;23;19932;-96
2023/03/16 08:19:39;;;;;;;;;;;;;;;9.05;100.00;99474.16;6174710;23;19916;-96
2023/03/16 08:22:05;;;;;;;;;;;;;;;8.98;100.00;99474.56;6148880;23;19893;-94
2023/03/16 08:27:14;;;;;;;;;;;;;;;9.15;100.00;99462.31;6173306;23;19920;-95
2023/03/16 08:32:22;;;;;;;;;;;;;;;9.30;100.00;99479.31;6157490;23;19971;-96
2023/03/16 08:34:54;;;;;;;;;;;;;;;9.38;100.00;99477.03;6166061;23;19939;-96
2023/03/16 08:37:23;;;;;;;;;;;;;;;9.50;100.00;99474.56;6165030;23;19932;-96
2023/03/16 08:39:51;;;;;;;;;;;;;;;9.43;100.00;99493.00;6122515;23;19900;-96
2023/03/16 08:42:19;;;;;;;;;;;;;;;9.43;100.00;99480.09;6144088;23;19908;-96
2023/03/16 08:44:54;;;;;;;;;;;;;;;9.46;100.00;99483.41;6144975;23;19979;-96
2023/03/16 08:47:26;;;;;;;;;;;;;;;9.56;100.00;99487.00;6149023;23;19909;-96
2023/03/16 08:49:57;;;;;;;;;;;;;;;9.60;100.00;99481.53;6152516;23;19931;-96
2023/03/16 08:52:26;;;;;;;;;;;;;;;9.48;100.00;99482.38;6148581;23;19935;-96
2023/03/16 08:55:04;;;;;;;;;;;;;;;9.49;100.00;99491.78;6148450;23;19908;-96
2023/03/16 08:57:31;;;;;;;;;;;;;;;9.30;100.00;99499.09;6149472;23;20335;-96
2023/03/16 09:00:02;;;;;;;;;;;;;;;9.27;100.00;99489.81;6146529;23;19908;-96
2023/03/16 09:02:55;;;;;;;;;;;;;;;9.20;100.00;99484.25;6149884;23;19952;-96
2023/03/16 09:05:26;;;;;;;;;;;;;;;9.20;100.00;99483.44;6148025;23;19909;-96
2023/03/16 09:08:05;;;;;;;;;;;;;;;9.20;100.00;99478.28;6150867;23;19908;-96
2023/03/16 09:10:34;;;;;;;;;;;;;;;9.15;100.00;99478.59;6142266;23;19932;-96
2023/03/16 09:13:11;;;;;;;;;;;;;;;9.12;100.00;99467.66;6151701;23;19915;-96
2023/03/16 09:15:37;;;;;;;;;;;;;;;9.15;100.00;99475.19;6151029;23;19935;-96
2023/03/16 09:18:26;;;;;;;;;;;;;;;9.12;100.00;99465.94;6149360;23;19912;-96
2023/03/16 09:21:03;;;;;;;;;;;;;;;9.18;100.00;99469.84;6150109;23;19952;-96
2023/03/16 09:23:49;;;;;;;;;;;;;;;9.14;100.00;99456.34;6146948;23;19908;-96
2023/03/16 09:26:19;;;;;;;;;;;;;;;9.14;100.00;99463.22;6147830;23;19916;-96
2023/03/16 09:29:11;;;;;;;;;;;;;;;9.17;100.00;99457.91;6169879;23;19909;-96
2023/03/16 09:31:51;;;;;;;;;;;;;;;9.21;100.00;99460.13;6125431;23;19956;-96
2023/03/16 09:34:21;;;;;;;;;;;;;;;9.24;100.00;99453.97;6151130;23;19909;-96
2023/03/16 09:39:55;;;;;;;;;;;;;;;9.41;100.00;99451.09;6155282;23;19956;-96
2023/03/16 09:42:52;;;;;;;;;;;;;;;9.59;100.00;99453.31;6152567;23;19956;-96
2023/03/16 09:45:27;;;;;;;;;;;;;;;9.62;100.00;99447.94;6150659;23;19909;-96
2023/03/16 09:48:17;;;;;;;;;;;;;;;9.70;100.00;99440.50;6178591;23;19909;-96
2023/03/16 09:50:54;;;;;;;;;;;;;;;9.84;100.00;99437.78;6153705;23;20228;-96
2023/03/16 09:53:28;;;;;;;;;;;;;;;10.05;100.00;99424.31;6146345;23;19909;-96
2023/03/16 09:56:08;;;;;;;;;;;;;;;10.30;100.00;99417.44;6153249;23;19908;-96
2023/03/16 09:59:04;;;;;;;;;;;;;;;10.79;96.96;99419.78;6154894;23;19931;-96
2023/03/16 10:02:22;;;;;;;;;;;;;;;10.97;93.99;99412.41;6162914;23;19916;-96
2023/03/16 10:05:17;;;;;;;;;;;;;;;11.19;92.18;99410.78;6116774;23;19919;-96
2023/03/16 10:07:44;;;;;;;;;;;;;;;11.17;90.62;99392.84;6093842;23;19909;-96
2023/03/16 10:13:46;;;;;;;;;;;;;;;12.09;84.29;99402.91;6160371;23;19916;-96
2023/03/16 10:16:42;;;;;;;;;;;;;;;11.79;86.40;99412.13;6150400;23;19920;-96
2023/03/16 10:25:19;;;;;;;;;;;;;;;12.53;78.98;99406.25;6164973;23;19939;-96
2023/03/16 10:27:59;;;;;;;;;;;;;;;12.35;80.30;99422.31;6140856;23;19952;-96
2023/03/16 10:30:52;;;;;;;;;;;;;;;12.75;78.45;99402.69;6141398;23;19931;-96
2023/03/16 10:36:11;;;;;;;;;;;;;;;11.65;86.06;99397.72;6160015;23;19909;-96
2023/03/16 11:03:55;;;;;;;;;;;;;;;;;;;;;
2023/03/16 11:07:09;;;;;;;;;;;;;;;;;;;;;
2023/03/16 11:10:01;;;;;;;;;;;;;;;10.61;93.05;99396.19;6012042;23;19960;-96
2023/03/16 11:18:42;;;;;;;;;;;;;;;10.58;93.44;99391.22;6128399;23;19916;-96
2023/03/16 11:27:51;;;;;;;;;;;;;;;;;;;;;
2023/03/16 11:34:01;;;;;;;;;;;;;;;10.54;92.72;99374.34;6071814;23;19917;-96
2023/03/16 11:37:13;;;;;;;;;;;;;;;10.78;93.62;99382.03;6051095;23;19914;-96
2023/03/16 11:42:51;;;;;;;;;;;;;;;10.85;90.76;99383.22;6016158;23;19917;-96
2023/03/16 11:46:01;;;;;;;;;;;;;;;;;;;;;
2023/03/16 11:49:04;;;;;;;;;;;;;;;;;;;;;
2023/03/16 11:52:14;;;;;;;;;;;;;;;;;;;;;
2023/03/16 11:55:01;;;;;;;;;;;;;;;;;;;;;
2023/03/16 11:58:16;;;;;;;;;;;;;;;;;;;;;
2023/03/16 12:01:00;;;;;;;;;;;;;;;10.77;90.07;99361.47;5848953;24;19943;-96
2023/03/16 12:04:00;;;;;;;;;;;;;;;10.76;90.56;99367.59;5853136;24;19920;-96
2023/03/16 12:07:01;;;;;;;;;;;;;;;;;;;;;
2023/03/16 12:09:52;;;;;;;;;;;;;;;;;;;;;
2023/03/16 12:13:10;;;;;;;;;;;;;;;;;;;;;
2023/03/16 12:16:10;;;;;;;;;;;;;;;10.45;91.64;99339.72;6074385;23;19944;-96
2023/03/16 12:18:47;;;;;;;;;;;;;;;10.55;90.27;99334.69;6127770;23;20240;-96
2023/03/16 12:21:26;;;;;;;;;;;;;;;10.53;92.98;99351.22;6133114;23;19956;-96
2023/03/16 12:24:05;;;;;;;;;;;;;;;10.46;94.60;99340.53;6131584;23;19999;-96
2023/03/16 12:29:46;;;;;;;;;;;;;;;10.15;99.08;99339.41;6125826;23;19931;-96
2023/03/16 12:32:36;;;;;;;;;;;;;;;10.20;97.87;99345.84;6131059;23;19909;-96
2023/03/16 12:38:29;;;;;;;;;;;;;;;10.25;96.81;99342.94;6129956;23;20327;-96
2023/03/16 12:40:56;;;;;;;;;;;;;;;10.12;95.93;99345.59;6132647;23;19909;-96
2023/03/16 12:46:26;;;;;;;;;;;;;;;10.19;95.58;99333.06;6132628;23;19908;-96
2023/03/16 12:49:16;;;;;;;;;;;;;;;;;;;;;
2023/03/16 12:52:17;;;;;;;;;;;;;;;10.43;94.75;99314.97;6135512;23;19940;-96
2023/03/16 12:58:16;;;;;;;;;;;;;;;10.43;95.11;99317.56;6129389;23;19912;-96
2023/03/16 13:04:07;;;;;;;;;;;;;;;10.74;92.03;99312.69;6102841;23;19917;-96
2023/03/16 13:07:11;;;;;;;;;;;;;;;;;;;;;
2023/03/16 13:10:19;;;;;;;;;;;;;;;;;;;;;
2023/03/16 13:13:04;;;;;;;;;;;;;;;10.64;93.60;99287.56;6132992;23;20347;-96
2023/03/16 13:15:58;;;;;;;;;;;;;;;;;;;;;
2023/03/16 13:37:16;;;;;;;;;;;;;;;;;;;;;
2023/03/16 13:48:49;;;;;;;;;;;;;;;;;;;;;
2023/03/16 13:58:20;;;;;;;;;;;;;;;10.20;100.00;99294.28;6158821;23;19991;-96
2023/03/16 14:04:38;;;;;;;;;;;;;;;;;;;;;
2023/03/16 14:11:38;;;;;;;;;;;;;;;;;;;;;
2023/03/16 14:22:04;;;;;;;;;;;;;;;10.16;100.00;99276.56;6173586;23;19939;-96
2023/03/16 14:25:03;;;;;;;;;;;;;;;10.13;100.00;99262.16;6124315;23;19912;-96
2023/03/16 14:28:23;;;;;;;;;;;;;;;10.23;100.00;99251.97;6168997;23;19939;-96
2023/03/16 14:47:28;;;;;;;;;;;;;;;10.25;100.00;99240.59;6160417;23;19923;-96
2023/03/16 15:06:21;;;;;;;;;;;;;;;10.21;100.00;99234.03;6157397;23;19916;-95
2023/03/16 15:08:49;;;;;;;;;;;;;;;10.26;100.00;99226.75;6135787;23;19952;-96
2023/03/16 15:11:20;;;;;;;;;;;;;;;10.17;100.00;99222.31;6135989;23;20000;-96
2023/03/16 15:13:52;;;;;;;;;;;;;;;10.24;100.00;99208.03;6137054;23;19915;-95
2023/03/16 15:16:21;;;;;;;;;;;;;;;10.17;100.00;99212.00;6133610;23;19915;-96
2023/03/16 15:18:48;;;;;;;;;;;;;;;10.25;100.00;99209.66;6162517;23;20007;-96
2023/03/16 15:21:21;;;;;;;;;;;;;;;10.21;100.00;99192.75;6137375;23;20316;-95
2023/03/16 15:23:47;;;;;;;;;;;;;;;10.31;100.00;99205.00;6131356;23;19966;-94
2023/03/16 15:26:13;;;;;;;;;;;;;;;10.27;100.00;99192.31;6130145;23;19941;-96
2023/03/16 15:28:38;;;;;;;;;;;;;;;10.35;100.00;99183.22;6132599;23;19913;-96
2023/03/16 15:31:04;;;;;;;;;;;;;;;10.38;100.00;99193.28;6130383;23;19909;-96
2023/03/16 15:33:30;;;;;;;;;;;;;;;10.38;100.00;99194.09;6129922;23;19916;-96
2023/03/16 15:36:00;;;;;;;;;;;;;;;10.33;100.00;99198.78;6131708;23;19913;-96
2023/03/16 15:38:26;;;;;;;;;;;;;;;10.25;100.00;99194.19;6131830;23;19908;-96
2023/03/16 15:40:54;;;;;;;;;;;;;;;10.34;100.00;99181.53;6131461;23;19908;-96
2023/03/16 15:43:23;;;;;;;;;;;;;;;10.21;100.00;99182.44;6131161;23;19908;-96
2023/03/16 15:45:50;;;;;;;;;;;;;;;10.18;100.00;99190.44;6130130;23;19915;-94
2023/03/16 15:48:18;;;;;;;;;;;;;;;10.10;100.00;99174.72;6130762;23;20336;-96
2023/03/16 15:50:47;;;;;;;;;;;;;;;10.09;100.00;99185.97;6130381;23;19932;-95
2023/03/16 15:53:17;;;;;;;;;;;;;;;10.12;100.00;99185.75;6133380;23;19908;-96
2023/03/16 15:55:46;;;;;;;;;;;;;;;10.15;100.00;99182.94;6132593;23;19905;-94
2023/03/16 15:58:17;;;;;;;;;;;;;;;10.13;100.00;99184.81;6131835;23;19909;-96
2023/03/16 16:00:43;;;;;;;;;;;;;;;10.18;100.00;99192.19;6134272;23;19912;-96
2023/03/16 16:03:19;;;;;;;;;;;;;;;10.31;100.00;99194.69;6130756;23;19915;-96
2023/03/16 16:09:04;;;;;;;;;;;;;;;10.29;100.00;99187.09;6166207;23;20007;-96
2023/03/16 16:11:30;;;;;;;;;;;;;;;10.26;100.00;99184.69;6133945;23;19990;-96
2023/03/16 16:13:56;;;;;;;;;;;;;;;10.12;100.00;99178.03;6133538;23;19912;-96
2023/03/16 16:59:17;;;;;;;;;;;;;;;9.28;100.00;99172.19;6100032;23;19953;-96
2023/03/16 17:02:05;;;;;;;;;;;;;;;9.20;100.00;99167.59;6171756;23;19908;-96